sensor_id;sensor_type;location;lat;lon;timestamp;P1;durP1;ratioP1;P2;durP2;ratioP2
71606;SDS011;60641;53.556;9.914;2023-08-24T00:00:28;7.90;;;2.80;;
71606;SDS011;60641;53.556;9.914;2023-08-24T00:03:15;12.00;;;3.20;;
71606;SDS011;60641;53.556;9.914;2023-08-24T00:05:42;8.80;;;2.70;;
71606;SDS011;60641;53.556;9.914;2023-08-24T00:08:09;8.60;;;2.80;;
71606;SDS011;60641;53.556;9.914;2023-08-24T00:10:36;7.00;;;2.30;;
71606;SDS011;60641;53.556;9.914;2023-08-24T00:13:04;6.70;;;2.40;;
71606;SDS011;60641;53.556;9.914;2023-08-24T00:15:30;9.90;;;3.40;;
71606;SDS011;60641;53.556;9.914;2023-08-24T00:17:57;9.40;;;2.70;;
71606;SDS011;60641;53.556;9.914;2023-08-24T00:20:23;9.70;;;2.70;;
71606;SDS011;60641;53.556;9.914;2023-08-24T00:22:50;9.60;;;3.10;;
71606;SDS011;60641;53.556;9.914;2023-08-24T00:25:16;7.90;;;2.50;;
71606;SDS011;60641;53.556;9.914;2023-08-24T00:27:44;9.30;;;3.30;;
71606;SDS011;60641;53.556;9.914;2023-08-24T00:30:11;10.50;;;3.80;;
71606;SDS011;60641;53.556;9.914;2023-08-24T00:32:37;7.80;;;3.00;;
71606;SDS011;60641;53.556;9.914;2023-08-24T00:35:04;12.50;;;3.20;;
71606;SDS011;60641;53.556;9.914;2023-08-24T00:37:34;8.40;;;3.00;;
71606;SDS011;60641;53.556;9.914;2023-08-24T00:40:00;8.40;;;2.70;;
71606;SDS011;60641;53.556;9.914;2023-08-24T00:42:37;8.40;;;3.40;;
71606;SDS011;60641;53.556;9.914;2023-08-24T00:45:07;9.10;;;3.00;;
71606;SDS011;60641;53.556;9.914;2023-08-24T00:47:53;8.80;;;3.80;;
71606;SDS011;60641;53.556;9.914;2023-08-24T00:50:20;11.50;;;3.70;;
71606;SDS011;60641;53.556;9.914;2023-08-24T00:52:46;9.60;;;3.10;;
71606;SDS011;60641;53.556;9.914;2023-08-24T00:55:13;9.20;;;3.00;;
71606;SDS011;60641;53.556;9.914;2023-08-24T00:57:40;8.90;;;3.60;;
71606;SDS011;60641;53.556;9.914;2023-08-24T01:00:08;10.50;;;3.90;;
71606;SDS011;60641;53.556;9.914;2023-08-24T01:02:37;10.20;;;3.70;;
71606;SDS011;60641;53.556;9.914;2023-08-24T01:05:04;9.70;;;3.20;;
71606;SDS011;60641;53.556;9.914;2023-08-24T01:07:31;10.00;;;3.40;;
71606;SDS011;60641;53.556;9.914;2023-08-24T01:09:59;9.50;;;3.70;;
71606;SDS011;60641;53.556;9.914;2023-08-24T01:12:28;11.30;;;3.70;;
71606;SDS011;60641;53.556;9.914;2023-08-24T01:18:13;10.70;;;3.90;;
71606;SDS011;60641;53.556;9.914;2023-08-24T01:20:42;10.70;;;4.10;;
71606;SDS011;60641;53.556;9.914;2023-08-24T01:23:14;9.30;;;4.50;;
71606;SDS011;60641;53.556;9.914;2023-08-24T01:25:52;10.60;;;4.00;;
71606;SDS011;60641;53.556;9.914;2023-08-24T01:28:20;10.90;;;4.40;;
71606;SDS011;60641;53.556;9.914;2023-08-24T01:30:47;10.50;;;4.10;;
71606;SDS011;60641;53.556;9.914;2023-08-24T01:33:14;9.40;;;3.80;;
71606;SDS011;60641;53.556;9.914;2023-08-24T01:35:41;9.10;;;3.90;;
71606;SDS011;60641;53.556;9.914;2023-08-24T01:38:07;10.70;;;3.90;;
71606;SDS011;60641;53.556;9.914;2023-08-24T01:43:11;11.40;;;4.20;;
71606;SDS011;60641;53.556;9.914;2023-08-24T01:45:39;12.20;;;4.30;;
71606;SDS011;60641;53.556;9.914;2023-08-24T01:48:08;11.60;;;4.00;;
71606;SDS011;60641;53.556;9.914;2023-08-24T01:50:35;10.00;;;3.80;;
71606;SDS011;60641;53.556;9.914;2023-08-24T01:53:02;10.20;;;4.10;;
71606;SDS011;60641;53.556;9.914;2023-08-24T01:55:29;10.30;;;3.90;;
71606;SDS011;60641;53.556;9.914;2023-08-24T01:57:56;11.00;;;3.90;;
71606;SDS011;60641;53.556;9.914;2023-08-24T02:00:22;13.40;;;4.30;;
71606;SDS011;60641;53.556;9.914;2023-08-24T02:02:49;10.70;;;3.60;;
71606;SDS011;60641;53.556;9.914;2023-08-24T02:05:15;10.80;;;3.80;;
71606;SDS011;60641;53.556;9.914;2023-08-24T02:07:42;11.60;;;4.00;;
71606;SDS011;60641;53.556;9.914;2023-08-24T02:10:08;8.40;;;3.30;;
71606;SDS011;60641;53.556;9.914;2023-08-24T02:12:35;9.40;;;3.50;;
71606;SDS011;60641;53.556;9.914;2023-08-24T02:15:01;8.50;;;3.40;;
71606;SDS011;60641;53.556;9.914;2023-08-24T02:17:28;10.60;;;3.50;;
71606;SDS011;60641;53.556;9.914;2023-08-24T02:19:55;10.00;;;3.70;;
71606;SDS011;60641;53.556;9.914;2023-08-24T02:22:22;8.80;;;3.50;;
71606;SDS011;60641;53.556;9.914;2023-08-24T02:24:48;11.00;;;4.00;;
71606;SDS011;60641;53.556;9.914;2023-08-24T02:27:14;7.60;;;3.10;;
71606;SDS011;60641;53.556;9.914;2023-08-24T02:29:43;10.00;;;3.60;;
71606;SDS011;60641;53.556;9.914;2023-08-24T02:32:10;8.40;;;3.70;;
71606;SDS011;60641;53.556;9.914;2023-08-24T02:34:37;10.60;;;3.70;;
71606;SDS011;60641;53.556;9.914;2023-08-24T02:37:04;9.40;;;3.70;;
71606;SDS011;60641;53.556;9.914;2023-08-24T02:39:31;9.30;;;3.60;;
71606;SDS011;60641;53.556;9.914;2023-08-24T02:41:57;9.30;;;4.00;;
71606;SDS011;60641;53.556;9.914;2023-08-24T02:44:24;9.00;;;3.60;;
71606;SDS011;60641;53.556;9.914;2023-08-24T02:46:50;9.40;;;3.70;;
71606;SDS011;60641;53.556;9.914;2023-08-24T02:49:17;9.90;;;3.70;;
71606;SDS011;60641;53.556;9.914;2023-08-24T02:51:43;11.50;;;4.00;;
71606;SDS011;60641;53.556;9.914;2023-08-24T02:54:09;11.30;;;3.90;;
71606;SDS011;60641;53.556;9.914;2023-08-24T02:56:36;9.30;;;3.90;;
71606;SDS011;60641;53.556;9.914;2023-08-24T02:59:02;9.40;;;3.50;;
71606;SDS011;60641;53.556;9.914;2023-08-24T03:01:29;8.10;;;3.00;;
71606;SDS011;60641;53.556;9.914;2023-08-24T03:03:56;10.60;;;4.70;;
71606;SDS011;60641;53.556;9.914;2023-08-24T03:06:22;16.30;;;8.60;;
71606;SDS011;60641;53.556;9.914;2023-08-24T03:08:50;13.40;;;7.10;;
71606;SDS011;60641;53.556;9.914;2023-08-24T03:11:16;11.90;;;6.20;;
71606;SDS011;60641;53.556;9.914;2023-08-24T03:13:43;11.20;;;5.20;;
71606;SDS011;60641;53.556;9.914;2023-08-24T03:16:09;12.70;;;5.30;;
71606;SDS011;60641;53.556;9.914;2023-08-24T03:18:36;11.90;;;5.80;;
71606;SDS011;60641;53.556;9.914;2023-08-24T03:21:03;10.50;;;4.90;;
71606;SDS011;60641;53.556;9.914;2023-08-24T03:23:30;9.70;;;4.50;;
71606;SDS011;60641;53.556;9.914;2023-08-24T03:25:57;10.50;;;4.10;;
71606;SDS011;60641;53.556;9.914;2023-08-24T03:28:24;12.70;;;4.60;;
71606;SDS011;60641;53.556;9.914;2023-08-24T03:30:51;9.90;;;4.20;;
71606;SDS011;60641;53.556;9.914;2023-08-24T03:33:18;10.60;;;4.10;;
71606;SDS011;60641;53.556;9.914;2023-08-24T03:35:45;10.10;;;4.20;;
71606;SDS011;60641;53.556;9.914;2023-08-24T03:38:12;10.50;;;4.20;;
71606;SDS011;60641;53.556;9.914;2023-08-24T03:40:38;12.00;;;4.60;;
71606;SDS011;60641;53.556;9.914;2023-08-24T03:43:05;10.10;;;4.10;;
71606;SDS011;60641;53.556;9.914;2023-08-24T03:45:31;9.60;;;4.60;;
71606;SDS011;60641;53.556;9.914;2023-08-24T03:47:58;9.80;;;4.50;;
71606;SDS011;60641;53.556;9.914;2023-08-24T03:50:24;10.70;;;4.00;;
71606;SDS011;60641;53.556;9.914;2023-08-24T03:52:52;10.90;;;4.10;;
71606;SDS011;60641;53.556;9.914;2023-08-24T03:55:20;10.90;;;4.00;;
71606;SDS011;60641;53.556;9.914;2023-08-24T03:57:47;9.90;;;4.30;;
71606;SDS011;60641;53.556;9.914;2023-08-24T04:00:14;9.50;;;4.10;;
71606;SDS011;60641;53.556;9.914;2023-08-24T04:02:41;10.80;;;4.00;;
71606;SDS011;60641;53.556;9.914;2023-08-24T04:05:08;7.90;;;3.80;;
71606;SDS011;60641;53.556;9.914;2023-08-24T04:07:34;10.00;;;4.20;;
71606;SDS011;60641;53.556;9.914;2023-08-24T04:10:03;10.70;;;4.20;;
71606;SDS011;60641;53.556;9.914;2023-08-24T04:12:33;10.40;;;4.40;;
71606;SDS011;60641;53.556;9.914;2023-08-24T04:14:59;11.90;;;4.40;;
71606;SDS011;60641;53.556;9.914;2023-08-24T04:17:26;10.70;;;4.40;;
71606;SDS011;60641;53.556;9.914;2023-08-24T04:19:52;9.00;;;4.10;;
71606;SDS011;60641;53.556;9.914;2023-08-24T04:22:18;10.70;;;4.10;;
71606;SDS011;60641;53.556;9.914;2023-08-24T04:24:45;10.40;;;4.30;;
71606;SDS011;60641;53.556;9.914;2023-08-24T04:27:11;22.20;;;4.40;;
71606;SDS011;60641;53.556;9.914;2023-08-24T04:29:38;9.30;;;4.00;;
71606;SDS011;60641;53.556;9.914;2023-08-24T04:32:05;10.30;;;4.80;;
71606;SDS011;60641;53.556;9.914;2023-08-24T04:34:32;12.70;;;5.10;;
71606;SDS011;60641;53.556;9.914;2023-08-24T04:36:58;11.90;;;4.50;;
71606;SDS011;60641;53.556;9.914;2023-08-24T04:39:25;9.50;;;4.00;;
71606;SDS011;60641;53.556;9.914;2023-08-24T04:41:51;10.80;;;4.50;;
71606;SDS011;60641;53.556;9.914;2023-08-24T04:44:17;11.20;;;4.60;;
71606;SDS011;60641;53.556;9.914;2023-08-24T04:46:44;12.40;;;4.40;;
71606;SDS011;60641;53.556;9.914;2023-08-24T04:49:10;11.90;;;4.50;;
71606;SDS011;60641;53.556;9.914;2023-08-24T04:51:37;12.70;;;4.20;;
71606;SDS011;60641;53.556;9.914;2023-08-24T04:54:03;12.80;;;4.40;;
71606;SDS011;60641;53.556;9.914;2023-08-24T04:56:30;14.30;;;4.50;;
71606;SDS011;60641;53.556;9.914;2023-08-24T04:58:57;9.90;;;3.80;;
71606;SDS011;60641;53.556;9.914;2023-08-24T05:01:24;11.80;;;3.90;;
71606;SDS011;60641;53.556;9.914;2023-08-24T05:03:51;11.40;;;4.60;;
71606;SDS011;60641;53.556;9.914;2023-08-24T05:06:18;11.40;;;4.20;;
71606;SDS011;60641;53.556;9.914;2023-08-24T05:08:45;11.70;;;4.20;;
71606;SDS011;60641;53.556;9.914;2023-08-24T05:11:18;12.20;;;4.50;;
71606;SDS011;60641;53.556;9.914;2023-08-24T05:13:46;11.70;;;4.10;;
71606;SDS011;60641;53.556;9.914;2023-08-24T05:16:12;11.20;;;3.90;;
71606;SDS011;60641;53.556;9.914;2023-08-24T05:18:39;16.00;;;4.60;;
71606;SDS011;60641;53.556;9.914;2023-08-24T05:21:06;10.10;;;4.10;;
71606;SDS011;60641;53.556;9.914;2023-08-24T05:23:33;12.70;;;4.00;;
71606;SDS011;60641;53.556;9.914;2023-08-24T05:25:59;11.40;;;4.20;;
71606;SDS011;60641;53.556;9.914;2023-08-24T05:28:27;9.90;;;4.20;;
71606;SDS011;60641;53.556;9.914;2023-08-24T05:30:55;13.50;;;4.10;;
71606;SDS011;60641;53.556;9.914;2023-08-24T05:33:22;10.60;;;3.80;;
71606;SDS011;60641;53.556;9.914;2023-08-24T05:35:50;12.70;;;4.10;;
71606;SDS011;60641;53.556;9.914;2023-08-24T05:38:17;25.50;;;6.20;;
71606;SDS011;60641;53.556;9.914;2023-08-24T05:40:47;20.80;;;4.60;;
71606;SDS011;60641;53.556;9.914;2023-08-24T05:43:14;19.90;;;2.90;;
71606;SDS011;60641;53.556;9.914;2023-08-24T05:45:40;13.70;;;3.00;;
71606;SDS011;60641;53.556;9.914;2023-08-24T05:48:10;8.70;;;2.20;;
71606;SDS011;60641;53.556;9.914;2023-08-24T05:50:37;17.00;;;3.50;;
71606;SDS011;60641;53.556;9.914;2023-08-24T05:53:03;12.60;;;2.60;;
71606;SDS011;60641;53.556;9.914;2023-08-24T05:55:34;10.20;;;2.70;;
71606;SDS011;60641;53.556;9.914;2023-08-24T05:58:00;8.30;;;2.40;;
71606;SDS011;60641;53.556;9.914;2023-08-24T06:03:53;8.20;;;2.20;;
71606;SDS011;60641;53.556;9.914;2023-08-24T06:06:20;71.90;;;8.10;;
71606;SDS011;60641;53.556;9.914;2023-08-24T06:08:46;13.50;;;3.10;;
71606;SDS011;60641;53.556;9.914;2023-08-24T06:11:14;9.80;;;2.30;;
71606;SDS011;60641;53.556;9.914;2023-08-24T06:13:40;13.30;;;2.40;;
71606;SDS011;60641;53.556;9.914;2023-08-24T06:16:07;10.50;;;2.20;;
71606;SDS011;60641;53.556;9.914;2023-08-24T06:18:34;10.60;;;2.20;;
71606;SDS011;60641;53.556;9.914;2023-08-24T06:21:00;6.30;;;1.60;;
71606;SDS011;60641;53.556;9.914;2023-08-24T06:23:27;7.20;;;1.70;;
71606;SDS011;60641;53.556;9.914;2023-08-24T06:25:54;7.40;;;2.00;;
71606;SDS011;60641;53.556;9.914;2023-08-24T06:28:27;10.00;;;2.10;;
71606;SDS011;60641;53.556;9.914;2023-08-24T06:30:54;11.70;;;2.00;;
71606;SDS011;60641;53.556;9.914;2023-08-24T06:33:21;8.10;;;2.30;;
71606;SDS011;60641;53.556;9.914;2023-08-24T06:35:47;8.80;;;2.30;;
71606;SDS011;60641;53.556;9.914;2023-08-24T06:38:16;8.20;;;2.70;;
71606;SDS011;60641;53.556;9.914;2023-08-24T06:40:42;7.80;;;2.40;;
71606;SDS011;60641;53.556;9.914;2023-08-24T06:43:09;6.40;;;2.40;;
71606;SDS011;60641;53.556;9.914;2023-08-24T06:45:35;7.00;;;2.40;;
71606;SDS011;60641;53.556;9.914;2023-08-24T06:48:02;7.90;;;1.80;;
71606;SDS011;60641;53.556;9.914;2023-08-24T06:50:29;6.30;;;1.70;;
71606;SDS011;60641;53.556;9.914;2023-08-24T06:52:55;8.40;;;2.10;;
71606;SDS011;60641;53.556;9.914;2023-08-24T06:55:22;6.30;;;1.80;;
71606;SDS011;60641;53.556;9.914;2023-08-24T06:57:49;7.40;;;2.10;;
71606;SDS011;60641;53.556;9.914;2023-08-24T07:00:22;6.80;;;1.90;;
71606;SDS011;60641;53.556;9.914;2023-08-24T07:02:54;7.20;;;2.50;;
71606;SDS011;60641;53.556;9.914;2023-08-24T07:05:21;7.20;;;2.00;;
71606;SDS011;60641;53.556;9.914;2023-08-24T07:07:49;7.50;;;2.30;;
71606;SDS011;60641;53.556;9.914;2023-08-24T07:10:16;8.30;;;2.00;;
71606;SDS011;60641;53.556;9.914;2023-08-24T07:12:44;7.80;;;1.70;;
71606;SDS011;60641;53.556;9.914;2023-08-24T07:15:12;8.80;;;1.70;;
71606;SDS011;60641;53.556;9.914;2023-08-24T07:17:48;5.60;;;1.60;;
71606;SDS011;60641;53.556;9.914;2023-08-24T07:20:16;8.00;;;1.90;;
71606;SDS011;60641;53.556;9.914;2023-08-24T07:23:09;6.10;;;1.80;;
71606;SDS011;60641;53.556;9.914;2023-08-24T07:25:36;11.30;;;2.00;;
71606;SDS011;60641;53.556;9.914;2023-08-24T07:28:15;9.20;;;1.70;;
71606;SDS011;60641;53.556;9.914;2023-08-24T07:31:08;10.20;;;1.70;;
71606;SDS011;60641;53.556;9.914;2023-08-24T07:33:40;7.90;;;1.70;;
71606;SDS011;60641;53.556;9.914;2023-08-24T07:36:10;8.80;;;2.10;;
71606;SDS011;60641;53.556;9.914;2023-08-24T07:38:40;6.20;;;1.50;;
71606;SDS011;60641;53.556;9.914;2023-08-24T07:41:16;6.00;;;1.90;;
71606;SDS011;60641;53.556;9.914;2023-08-24T07:43:44;10.00;;;2.30;;
71606;SDS011;60641;53.556;9.914;2023-08-24T07:46:10;10.30;;;2.40;;
71606;SDS011;60641;53.556;9.914;2023-08-24T07:48:37;8.90;;;2.40;;
71606;SDS011;60641;53.556;9.914;2023-08-24T07:51:03;10.50;;;2.90;;
71606;SDS011;60641;53.556;9.914;2023-08-24T07:53:30;5.90;;;1.70;;
71606;SDS011;60641;53.556;9.914;2023-08-24T07:56:00;10.00;;;2.40;;
71606;SDS011;60641;53.556;9.914;2023-08-24T07:58:49;10.50;;;3.50;;
71606;SDS011;60641;53.556;9.914;2023-08-24T08:01:16;12.30;;;3.60;;
71606;SDS011;60641;53.556;9.914;2023-08-24T08:03:43;10.60;;;3.20;;
71606;SDS011;60641;53.556;9.914;2023-08-24T08:06:13;10.60;;;3.40;;
71606;SDS011;60641;53.556;9.914;2023-08-24T08:08:41;15.50;;;3.50;;
71606;SDS011;60641;53.556;9.914;2023-08-24T08:11:31;13.10;;;3.40;;
71606;SDS011;60641;53.556;9.914;2023-08-24T08:14:00;9.50;;;3.30;;
71606;SDS011;60641;53.556;9.914;2023-08-24T08:16:29;11.10;;;2.80;;
71606;SDS011;60641;53.556;9.914;2023-08-24T08:18:58;13.40;;;3.20;;
71606;SDS011;60641;53.556;9.914;2023-08-24T08:21:44;10.90;;;2.60;;
71606;SDS011;60641;53.556;9.914;2023-08-24T08:24:17;10.00;;;2.40;;
71606;SDS011;60641;53.556;9.914;2023-08-24T08:26:46;16.00;;;3.00;;
71606;SDS011;60641;53.556;9.914;2023-08-24T08:29:23;12.00;;;3.40;;
71606;SDS011;60641;53.556;9.914;2023-08-24T08:31:53;10.90;;;2.60;;
71606;SDS011;60641;53.556;9.914;2023-08-24T08:34:21;12.20;;;2.90;;
71606;SDS011;60641;53.556;9.914;2023-08-24T08:36:57;7.70;;;2.50;;
71606;SDS011;60641;53.556;9.914;2023-08-24T08:39:26;9.90;;;2.40;;
71606;SDS011;60641;53.556;9.914;2023-08-24T08:41:52;9.10;;;2.50;;
71606;SDS011;60641;53.556;9.914;2023-08-24T08:44:19;9.30;;;2.90;;
71606;SDS011;60641;53.556;9.914;2023-08-24T08:46:46;8.80;;;2.50;;
71606;SDS011;60641;53.556;9.914;2023-08-24T08:49:13;10.30;;;2.70;;
71606;SDS011;60641;53.556;9.914;2023-08-24T08:51:42;10.50;;;2.50;;
71606;SDS011;60641;53.556;9.914;2023-08-24T08:54:16;12.50;;;2.60;;
71606;SDS011;60641;53.556;9.914;2023-08-24T08:56:49;11.80;;;2.20;;
71606;SDS011;60641;53.556;9.914;2023-08-24T08:59:18;9.50;;;2.10;;
71606;SDS011;60641;53.556;9.914;2023-08-24T09:01:46;11.10;;;2.30;;
71606;SDS011;60641;53.556;9.914;2023-08-24T09:04:14;8.80;;;2.20;;
71606;SDS011;60641;53.556;9.914;2023-08-24T09:06:48;8.10;;;2.20;;
71606;SDS011;60641;53.556;9.914;2023-08-24T09:09:17;10.10;;;2.60;;
71606;SDS011;60641;53.556;9.914;2023-08-24T09:11:44;11.20;;;2.20;;
71606;SDS011;60641;53.556;9.914;2023-08-24T09:14:13;7.40;;;2.10;;
71606;SDS011;60641;53.556;9.914;2023-08-24T09:16:42;7.30;;;2.20;;
71606;SDS011;60641;53.556;9.914;2023-08-24T09:19:12;12.10;;;2.10;;
71606;SDS011;60641;53.556;9.914;2023-08-24T09:21:40;7.40;;;1.90;;
71606;SDS011;60641;53.556;9.914;2023-08-24T09:24:08;8.00;;;1.70;;
71606;SDS011;60641;53.556;9.914;2023-08-24T09:26:36;6.70;;;1.90;;
71606;SDS011;60641;53.556;9.914;2023-08-24T09:29:12;10.80;;;2.20;;
71606;SDS011;60641;53.556;9.914;2023-08-24T09:31:40;6.00;;;2.00;;
71606;SDS011;60641;53.556;9.914;2023-08-24T09:34:10;10.80;;;2.30;;
71606;SDS011;60641;53.556;9.914;2023-08-24T09:36:37;6.40;;;2.00;;
71606;SDS011;60641;53.556;9.914;2023-08-24T09:39:08;8.00;;;1.90;;
71606;SDS011;60641;53.556;9.914;2023-08-24T09:41:36;9.40;;;2.40;;
71606;SDS011;60641;53.556;9.914;2023-08-24T09:44:05;10.30;;;2.50;;
71606;SDS011;60641;53.556;9.914;2023-08-24T09:46:32;8.30;;;2.40;;
71606;SDS011;60641;53.556;9.914;2023-08-24T09:48:58;9.30;;;2.40;;
71606;SDS011;60641;53.556;9.914;2023-08-24T09:51:27;8.80;;;2.80;;
71606;SDS011;60641;53.556;9.914;2023-08-24T09:53:56;12.20;;;4.20;;
71606;SDS011;60641;53.556;9.914;2023-08-24T09:56:25;8.50;;;3.60;;
71606;SDS011;60641;53.556;9.914;2023-08-24T09:58:52;7.40;;;2.20;;
71606;SDS011;60641;53.556;9.914;2023-08-24T10:01:21;6.30;;;2.10;;
71606;SDS011;60641;53.556;9.914;2023-08-24T10:03:50;8.00;;;2.00;;
71606;SDS011;60641;53.556;9.914;2023-08-24T10:06:19;8.70;;;2.50;;
71606;SDS011;60641;53.556;9.914;2023-08-24T10:08:54;6.70;;;2.50;;
71606;SDS011;60641;53.556;9.914;2023-08-24T10:11:26;7.90;;;2.40;;
71606;SDS011;60641;53.556;9.914;2023-08-24T10:13:59;6.70;;;2.10;;
71606;SDS011;60641;53.556;9.914;2023-08-24T10:16:33;8.30;;;2.60;;
71606;SDS011;60641;53.556;9.914;2023-08-24T10:19:02;9.70;;;2.60;;
71606;SDS011;60641;53.556;9.914;2023-08-24T10:21:56;8.60;;;2.40;;
71606;SDS011;60641;53.556;9.914;2023-08-24T10:24:23;7.90;;;2.50;;
71606;SDS011;60641;53.556;9.914;2023-08-24T10:26:50;8.70;;;2.50;;
71606;SDS011;60641;53.556;9.914;2023-08-24T10:29:20;9.70;;;2.40;;
71606;SDS011;60641;53.556;9.914;2023-08-24T10:31:49;8.90;;;2.30;;
71606;SDS011;60641;53.556;9.914;2023-08-24T10:34:19;11.40;;;2.50;;
71606;SDS011;60641;53.556;9.914;2023-08-24T10:36:47;6.30;;;2.10;;
71606;SDS011;60641;53.556;9.914;2023-08-24T10:39:15;10.10;;;2.00;;
71606;SDS011;60641;53.556;9.914;2023-08-24T10:41:46;7.30;;;2.10;;
71606;SDS011;60641;53.556;9.914;2023-08-24T10:44:19;7.90;;;2.40;;
71606;SDS011;60641;53.556;9.914;2023-08-24T10:49:35;9.00;;;2.50;;
71606;SDS011;60641;53.556;9.914;2023-08-24T10:52:17;7.40;;;2.10;;
71606;SDS011;60641;53.556;9.914;2023-08-24T10:54:50;11.10;;;2.70;;
71606;SDS011;60641;53.556;9.914;2023-08-24T10:57:18;8.60;;;2.50;;
71606;SDS011;60641;53.556;9.914;2023-08-24T11:02:55;9.10;;;2.20;;
71606;SDS011;60641;53.556;9.914;2023-08-24T11:05:51;6.90;;;2.40;;
71606;SDS011;60641;53.556;9.914;2023-08-24T11:08:45;8.20;;;2.40;;
71606;SDS011;60641;53.556;9.914;2023-08-24T11:16:52;9.90;;;2.40;;
71606;SDS011;60641;53.556;9.914;2023-08-24T11:19:20;8.30;;;2.20;;
71606;SDS011;60641;53.556;9.914;2023-08-24T11:21:47;8.20;;;2.40;;
71606;SDS011;60641;53.556;9.914;2023-08-24T11:24:15;7.10;;;2.50;;
71606;SDS011;60641;53.556;9.914;2023-08-24T11:26:57;7.00;;;2.20;;
71606;SDS011;60641;53.556;9.914;2023-08-24T11:29:26;7.40;;;2.40;;
71606;SDS011;60641;53.556;9.914;2023-08-24T11:31:57;9.20;;;3.10;;
71606;SDS011;60641;53.556;9.914;2023-08-24T11:34:41;8.60;;;2.40;;
71606;SDS011;60641;53.556;9.914;2023-08-24T11:37:18;7.70;;;2.60;;
71606;SDS011;60641;53.556;9.914;2023-08-24T11:39:45;7.10;;;2.80;;
71606;SDS011;60641;53.556;9.914;2023-08-24T11:42:12;8.50;;;2.90;;
71606;SDS011;60641;53.556;9.914;2023-08-24T11:44:45;9.60;;;2.40;;
71606;SDS011;60641;53.556;9.914;2023-08-24T11:47:15;12.60;;;2.90;;
71606;SDS011;60641;53.556;9.914;2023-08-24T11:49:42;9.10;;;2.60;;
71606;SDS011;60641;53.556;9.914;2023-08-24T11:52:09;7.70;;;2.90;;
71606;SDS011;60641;53.556;9.914;2023-08-24T11:54:44;8.10;;;2.80;;
71606;SDS011;60641;53.556;9.914;2023-08-24T11:57:15;8.90;;;3.00;;
71606;SDS011;60641;53.556;9.914;2023-08-24T11:59:41;8.50;;;2.60;;
71606;SDS011;60641;53.556;9.914;2023-08-24T12:02:10;8.70;;;3.00;;
71606;SDS011;60641;53.556;9.914;2023-08-24T12:04:41;8.50;;;2.30;;
71606;SDS011;60641;53.556;9.914;2023-08-24T12:07:09;6.70;;;2.10;;
71606;SDS011;60641;53.556;9.914;2023-08-24T12:09:39;7.50;;;2.60;;
71606;SDS011;60641;53.556;9.914;2023-08-24T12:12:11;8.60;;;3.00;;
71606;SDS011;60641;53.556;9.914;2023-08-24T12:14:45;9.00;;;2.70;;
71606;SDS011;60641;53.556;9.914;2023-08-24T12:17:13;8.00;;;2.60;;
71606;SDS011;60641;53.556;9.914;2023-08-24T12:19:41;8.30;;;2.80;;
71606;SDS011;60641;53.556;9.914;2023-08-24T12:22:19;9.60;;;3.10;;
71606;SDS011;60641;53.556;9.914;2023-08-24T12:24:45;11.40;;;3.10;;
71606;SDS011;60641;53.556;9.914;2023-08-24T12:27:26;7.00;;;2.70;;
71606;SDS011;60641;53.556;9.914;2023-08-24T12:29:53;9.10;;;3.30;;
71606;SDS011;60641;53.556;9.914;2023-08-24T12:32:22;10.10;;;2.90;;
71606;SDS011;60641;53.556;9.914;2023-08-24T12:34:49;8.70;;;2.70;;
71606;SDS011;60641;53.556;9.914;2023-08-24T12:37:21;13.90;;;3.10;;
71606;SDS011;60641;53.556;9.914;2023-08-24T12:39:48;9.10;;;2.70;;
71606;SDS011;60641;53.556;9.914;2023-08-24T12:42:17;8.40;;;2.50;;
71606;SDS011;60641;53.556;9.914;2023-08-24T12:44:43;8.40;;;2.90;;
71606;SDS011;60641;53.556;9.914;2023-08-24T12:47:10;6.30;;;2.70;;
71606;SDS011;60641;53.556;9.914;2023-08-24T12:49:36;12.20;;;2.70;;
71606;SDS011;60641;53.556;9.914;2023-08-24T12:52:03;8.00;;;3.00;;
71606;SDS011;60641;53.556;9.914;2023-08-24T12:54:29;10.40;;;3.00;;
71606;SDS011;60641;53.556;9.914;2023-08-24T12:56:56;6.90;;;2.70;;
71606;SDS011;60641;53.556;9.914;2023-08-24T12:59:23;10.70;;;2.60;;
71606;SDS011;60641;53.556;9.914;2023-08-24T13:01:49;6.70;;;2.50;;
71606;SDS011;60641;53.556;9.914;2023-08-24T13:04:16;10.00;;;2.80;;
71606;SDS011;60641;53.556;9.914;2023-08-24T13:06:42;7.10;;;2.50;;
71606;SDS011;60641;53.556;9.914;2023-08-24T13:09:09;7.20;;;2.30;;
71606;SDS011;60641;53.556;9.914;2023-08-24T13:11:36;7.70;;;2.40;;
71606;SDS011;60641;53.556;9.914;2023-08-24T13:14:02;6.90;;;2.50;;
71606;SDS011;60641;53.556;9.914;2023-08-24T13:16:28;9.30;;;3.00;;
71606;SDS011;60641;53.556;9.914;2023-08-24T13:18:55;8.50;;;2.50;;
71606;SDS011;60641;53.556;9.914;2023-08-24T13:21:21;8.60;;;2.50;;
71606;SDS011;60641;53.556;9.914;2023-08-24T13:23:48;7.40;;;2.30;;
71606;SDS011;60641;53.556;9.914;2023-08-24T13:26:18;6.80;;;2.30;;
71606;SDS011;60641;53.556;9.914;2023-08-24T13:28:49;7.40;;;2.20;;
71606;SDS011;60641;53.556;9.914;2023-08-24T13:31:16;6.70;;;2.20;;
71606;SDS011;60641;53.556;9.914;2023-08-24T13:33:44;9.40;;;2.50;;
71606;SDS011;60641;53.556;9.914;2023-08-24T13:36:11;7.10;;;2.30;;
71606;SDS011;60641;53.556;9.914;2023-08-24T13:38:37;7.30;;;2.30;;
71606;SDS011;60641;53.556;9.914;2023-08-24T13:41:04;5.40;;;1.90;;
71606;SDS011;60641;53.556;9.914;2023-08-24T13:43:31;7.40;;;2.40;;
71606;SDS011;60641;53.556;9.914;2023-08-24T13:46:00;5.40;;;2.10;;
71606;SDS011;60641;53.556;9.914;2023-08-24T13:48:26;6.50;;;2.00;;
71606;SDS011;60641;53.556;9.914;2023-08-24T13:50:55;6.20;;;2.10;;
71606;SDS011;60641;53.556;9.914;2023-08-24T13:53:22;5.60;;;2.00;;
71606;SDS011;60641;53.556;9.914;2023-08-24T13:55:49;5.70;;;1.70;;
71606;SDS011;60641;53.556;9.914;2023-08-24T13:58:16;7.80;;;2.10;;
71606;SDS011;60641;53.556;9.914;2023-08-24T14:00:42;6.10;;;1.90;;
71606;SDS011;60641;53.556;9.914;2023-08-24T14:03:09;5.90;;;2.30;;
71606;SDS011;60641;53.556;9.914;2023-08-24T14:05:38;6.30;;;2.40;;
71606;SDS011;60641;53.556;9.914;2023-08-24T14:08:06;7.60;;;2.30;;
71606;SDS011;60641;53.556;9.914;2023-08-24T14:10:34;9.00;;;2.00;;
71606;SDS011;60641;53.556;9.914;2023-08-24T14:13:00;7.60;;;2.00;;
71606;SDS011;60641;53.556;9.914;2023-08-24T14:15:27;7.10;;;2.10;;
71606;SDS011;60641;53.556;9.914;2023-08-24T14:17:53;6.30;;;1.90;;
71606;SDS011;60641;53.556;9.914;2023-08-24T14:20:20;6.80;;;2.00;;
71606;SDS011;60641;53.556;9.914;2023-08-24T14:22:46;5.10;;;1.90;;
71606;SDS011;60641;53.556;9.914;2023-08-24T14:25:14;7.50;;;2.20;;
71606;SDS011;60641;53.556;9.914;2023-08-24T14:27:41;7.00;;;2.30;;
71606;SDS011;60641;53.556;9.914;2023-08-24T14:30:08;8.70;;;2.10;;
71606;SDS011;60641;53.556;9.914;2023-08-24T14:32:34;8.00;;;2.20;;
71606;SDS011;60641;53.556;9.914;2023-08-24T14:35:01;5.10;;;1.80;;
71606;SDS011;60641;53.556;9.914;2023-08-24T14:37:29;7.30;;;2.20;;
71606;SDS011;60641;53.556;9.914;2023-08-24T14:39:56;7.20;;;2.20;;
71606;SDS011;60641;53.556;9.914;2023-08-24T14:42:22;6.90;;;2.40;;
71606;SDS011;60641;53.556;9.914;2023-08-24T14:44:49;6.50;;;2.50;;
71606;SDS011;60641;53.556;9.914;2023-08-24T14:47:15;9.00;;;2.10;;
71606;SDS011;60641;53.556;9.914;2023-08-24T14:49:42;5.00;;;1.80;;
71606;SDS011;60641;53.556;9.914;2023-08-24T14:52:08;8.30;;;2.30;;
71606;SDS011;60641;53.556;9.914;2023-08-24T14:54:34;5.60;;;2.10;;
71606;SDS011;60641;53.556;9.914;2023-08-24T14:57:01;6.60;;;2.10;;
71606;SDS011;60641;53.556;9.914;2023-08-24T14:59:29;5.10;;;2.40;;
71606;SDS011;60641;53.556;9.914;2023-08-24T15:01:55;5.80;;;2.20;;
71606;SDS011;60641;53.556;9.914;2023-08-24T15:04:29;4.70;;;2.00;;
71606;SDS011;60641;53.556;9.914;2023-08-24T15:06:55;6.10;;;2.00;;
71606;SDS011;60641;53.556;9.914;2023-08-24T15:09:23;9.70;;;2.40;;
71606;SDS011;60641;53.556;9.914;2023-08-24T15:11:49;7.30;;;2.10;;